Brier Hill, NY (13614)

5:04 PM EST on February 09, 2016 (GMT -0500)
St. Lawrence River shoreline | | Change Station
CLOSE
Current Station
Personal Weather Station
Location: Brockville, ONTARIO
Elevation: 285 ft
Nearby Weather Stations

Elev 285 ft 44.54 °N, 75.76 °W | Updated 2 minutes ago

Snow
Snow
23.4 °F
Feels Like 23 °F
N
2.9
Wind Variable Wind from WNW
Gusts 3.0 mph

Today
High -- | Low -- °F
--% Chance of Precip.
Yesterday
High -- | Low -- °F
Precip. -- in
Pressure 29.54 in
Visibility 8.0 miles
Clouds Scattered Clouds 1900 ft
Overcast 3600 ft
Windchill 23 °F
Dew Point 20 °F
Humidity 87%
Rainfall 0.00 in
Snow Depth Not available.
7:12 AM 5:22 PM
New Moon, 2% visible
METAR KGTB 092158Z AUTO 04006KT 8SM -SN SCT019 OVC036 M04/M05 A2951 RMK AO2 SNE18SNB24 SLP002 P0000 T10381054
Pressure 29.54 in
Visibility 8.0 miles
Clouds Scattered Clouds 1900 ft
Overcast 3600 ft
Windchill 23 °F
Dew Point 20 °F
Humidity 87%
Rainfall 0.00 in
Snow Depth Not available.
7:12 AM 5:22 PM
New Moon, 2% visible
METAR KGTB 092158Z AUTO 04006KT 8SM -SN SCT019 OVC036 M04/M05 A2951 RMK AO2 SNE18SNB24 SLP002 P0000 T10381054

10-Day Weather Forecast

Almanac

Astronomy

Feb. 09, 2016 Rise Set
Actual Time
Civil Twilight
Nautical Twilight
Astronomical Twilight
Moon
Length of Visible Light
Length of Day
Tomorrow will be .
, % of the Moon is Illuminated

Today's Extremes

State Highs State Lows

Community

WunderPhotos

Upload Photos

1,891,719 photos uploaded!

WunderBlog® & News

Nearby

Air Quality

  Air Quality AQ Index Pollutant
Not available.

Snow Depth

Station Depth Elevation

Earthquake Activity

City Distance Mag. Time & Date
Minimum magnitude displayed is 2.5.

Coastal Water Temperatures

Place Temperature

Stations

Nearby Weather Stations

Station Location Temp. Windchill Dew Point Humidity Wind Precip. Elev Updated Type
                   

Watches & Warnings

There are currently no watches in effect.